CheckWX is a tool to help pilots better visualize weather data.  It is not intended as a substitute for an official pre-flight weather briefing.

04:40:57 UTC

KATW METAR
Appleton International Airport
Appleton, Wisconsin, USA
Current

26 mins ago

KATW 250415Z AUTO 22010KT 10SM OVC120 12/01 A2979 RMK AO2
Observed
Apr-25 @ 04:15 UTC
Wind
  • 220° at 10 KTS
Visibility
10 SM
Flight Rules
VFR
Cloud Levels
  • Overcast at 12,000' AGL
Temperature
12°C / 54°F
Dewpoint
C / 34°F
Humidity
47%
Altimeter
29.79" Hg
Pressure
1008.82 hPa
Previous

46 mins ago

KATW 250355Z AUTO 21009KT 10SM OVC120 12/01 A2979 RMK AO2
Observed
Apr-25 @ 03:55 UTC
Wind
  • 210° at 9 KTS
Visibility
10 SM
Flight Rules
VFR
Cloud Levels
  • Overcast at 12,000' AGL
Temperature
12°C / 54°F
Dewpoint
C / 34°F
Humidity
47%
Altimeter
29.79" Hg
Pressure
1008.82 hPa
Previous

56 mins ago

KATW 250345Z 22010KT 10SM BKN120 13/02 A2979 RMK LAST
Observed
Apr-25 @ 03:45 UTC
Wind
  • 220° at 10 KTS
Visibility
10 SM
Flight Rules
VFR
Cloud Levels
  • Broken at 12,000' AGL
Temperature
13°C / 55°F
Dewpoint
C / 36°F
Humidity
47%
Altimeter
29.79" Hg
Pressure
1008.82 hPa